sensor_id;sensor_type;location;lat;lon;timestamp;temperature;humidity
37938;DHT22;23763;48.130;11.602;2023-05-23T00:01:49;18.40;99.90
37938;DHT22;23763;48.130;11.602;2023-05-23T00:04:15;18.40;99.90
37938;DHT22;23763;48.130;11.602;2023-05-23T00:06:43;18.40;99.90
37938;DHT22;23763;48.130;11.602;2023-05-23T00:09:13;18.40;99.90
37938;DHT22;23763;48.130;11.602;2023-05-23T00:11:40;18.30;99.90
37938;DHT22;23763;48.130;11.602;2023-05-23T00:14:10;18.30;99.90
37938;DHT22;23763;48.130;11.602;2023-05-23T00:16:38;18.30;99.90
37938;DHT22;23763;48.130;11.602;2023-05-23T00:19:05;18.30;99.90
37938;DHT22;23763;48.130;11.602;2023-05-23T00:21:31;18.30;99.90
37938;DHT22;23763;48.130;11.602;2023-05-23T00:23:57;18.30;99.90
37938;DHT22;23763;48.130;11.602;2023-05-23T00:26:23;18.30;99.90
37938;DHT22;23763;48.130;11.602;2023-05-23T00:28:49;18.20;99.90
37938;DHT22;23763;48.130;11.602;2023-05-23T00:31:15;18.30;99.90
37938;DHT22;23763;48.130;11.602;2023-05-23T00:33:41;18.30;99.90
37938;DHT22;23763;48.130;11.602;2023-05-23T00:36:07;18.30;99.90
37938;DHT22;23763;48.130;11.602;2023-05-23T00:38:33;18.30;99.90
37938;DHT22;23763;48.130;11.602;2023-05-23T00:40:59;18.40;99.90
37938;DHT22;23763;48.130;11.602;2023-05-23T00:43:26;18.30;99.90
37938;DHT22;23763;48.130;11.602;2023-05-23T00:45:51;18.40;99.90
37938;DHT22;23763;48.130;11.602;2023-05-23T00:48:17;18.50;99.90
37938;DHT22;23763;48.130;11.602;2023-05-23T00:50:43;18.40;99.90
37938;DHT22;23763;48.130;11.602;2023-05-23T00:53:09;18.50;99.90
37938;DHT22;23763;48.130;11.602;2023-05-23T00:55:34;18.50;99.90
37938;DHT22;23763;48.130;11.602;2023-05-23T00:58:00;18.50;99.90
37938;DHT22;23763;48.130;11.602;2023-05-23T01:00:27;18.50;99.90
37938;DHT22;23763;48.130;11.602;2023-05-23T01:02:53;18.50;99.90
37938;DHT22;23763;48.130;11.602;2023-05-23T01:05:19;18.50;99.90
37938;DHT22;23763;48.130;11.602;2023-05-23T01:07:47;18.50;99.90
37938;DHT22;23763;48.130;11.602;2023-05-23T01:10:19;18.40;99.90
37938;DHT22;23763;48.130;11.602;2023-05-23T01:15:30;18.40;99.90
37938;DHT22;23763;48.130;11.602;2023-05-23T01:18:07;18.40;99.90
37938;DHT22;23763;48.130;11.602;2023-05-23T01:20:39;18.30;99.90
37938;DHT22;23763;48.130;11.602;2023-05-23T01:28:46;18.30;99.90
37938;DHT22;23763;48.130;11.602;2023-05-23T01:31:15;18.40;99.90
37938;DHT22;23763;48.130;11.602;2023-05-23T01:33:42;18.30;99.90
37938;DHT22;23763;48.130;11.602;2023-05-23T01:36:08;18.30;99.90
37938;DHT22;23763;48.130;11.602;2023-05-23T01:38:36;18.30;99.90
37938;DHT22;23763;48.130;11.602;2023-05-23T01:41:02;18.30;99.90
37938;DHT22;23763;48.130;11.602;2023-05-23T01:43:28;18.30;99.90
37938;DHT22;23763;48.130;11.602;2023-05-23T01:45:55;18.30;99.90
37938;DHT22;23763;48.130;11.602;2023-05-23T01:48:22;18.30;99.90
37938;DHT22;23763;48.130;11.602;2023-05-23T01:50:49;18.30;99.90
37938;DHT22;23763;48.130;11.602;2023-05-23T01:53:18;18.10;99.90
37938;DHT22;23763;48.130;11.602;2023-05-23T01:55:44;18.20;99.90
37938;DHT22;23763;48.130;11.602;2023-05-23T01:58:09;18.20;99.90
37938;DHT22;23763;48.130;11.602;2023-05-23T02:00:35;18.10;99.90
37938;DHT22;23763;48.130;11.602;2023-05-23T02:03:01;18.20;99.90
37938;DHT22;23763;48.130;11.602;2023-05-23T02:05:26;18.20;99.90
37938;DHT22;23763;48.130;11.602;2023-05-23T02:07:52;18.10;99.90
37938;DHT22;23763;48.130;11.602;2023-05-23T02:10:18;18.20;99.90
37938;DHT22;23763;48.130;11.602;2023-05-23T02:12:44;18.10;99.90
37938;DHT22;23763;48.130;11.602;2023-05-23T02:15:10;18.10;99.90
37938;DHT22;23763;48.130;11.602;2023-05-23T02:17:35;18.00;99.90
37938;DHT22;23763;48.130;11.602;2023-05-23T02:20:03;18.00;99.90
37938;DHT22;23763;48.130;11.602;2023-05-23T02:22:29;18.00;99.90
37938;DHT22;23763;48.130;11.602;2023-05-23T02:24:55;18.00;99.90
37938;DHT22;23763;48.130;11.602;2023-05-23T02:27:20;17.90;99.90
37938;DHT22;23763;48.130;11.602;2023-05-23T02:29:46;17.90;99.90
37938;DHT22;23763;48.130;11.602;2023-05-23T02:32:11;17.90;99.90
37938;DHT22;23763;48.130;11.602;2023-05-23T02:34:37;17.90;99.90
37938;DHT22;23763;48.130;11.602;2023-05-23T02:37:03;17.80;99.90
37938;DHT22;23763;48.130;11.602;2023-05-23T02:39:28;17.80;99.90
37938;DHT22;23763;48.130;11.602;2023-05-23T02:41:54;17.90;99.90
37938;DHT22;23763;48.130;11.602;2023-05-23T02:44:20;17.80;99.90
37938;DHT22;23763;48.130;11.602;2023-05-23T02:46:45;17.60;99.90
37938;DHT22;23763;48.130;11.602;2023-05-23T02:49:11;17.80;99.90
37938;DHT22;23763;48.130;11.602;2023-05-23T02:51:37;17.60;99.90
37938;DHT22;23763;48.130;11.602;2023-05-23T02:54:02;17.60;99.90
37938;DHT22;23763;48.130;11.602;2023-05-23T02:56:28;17.50;99.90
37938;DHT22;23763;48.130;11.602;2023-05-23T02:58:53;17.40;99.90
37938;DHT22;23763;48.130;11.602;2023-05-23T03:01:19;17.40;99.90
37938;DHT22;23763;48.130;11.602;2023-05-23T03:03:45;17.30;99.90
37938;DHT22;23763;48.130;11.602;2023-05-23T03:06:10;17.40;99.90
37938;DHT22;23763;48.130;11.602;2023-05-23T03:08:39;17.30;99.90
37938;DHT22;23763;48.130;11.602;2023-05-23T03:11:05;17.40;99.90
37938;DHT22;23763;48.130;11.602;2023-05-23T03:13:31;17.30;99.90
37938;DHT22;23763;48.130;11.602;2023-05-23T03:15:57;17.20;99.90
37938;DHT22;23763;48.130;11.602;2023-05-23T03:18:22;17.20;99.90
37938;DHT22;23763;48.130;11.602;2023-05-23T03:20:48;17.10;99.90
37938;DHT22;23763;48.130;11.602;2023-05-23T03:23:13;17.10;99.90
37938;DHT22;23763;48.130;11.602;2023-05-23T03:25:39;17.20;99.90
37938;DHT22;23763;48.130;11.602;2023-05-23T03:28:04;17.10;99.90
37938;DHT22;23763;48.130;11.602;2023-05-23T03:30:30;17.20;99.90
37938;DHT22;23763;48.130;11.602;2023-05-23T03:32:56;17.10;99.90
37938;DHT22;23763;48.130;11.602;2023-05-23T03:35:21;17.10;99.90
37938;DHT22;23763;48.130;11.602;2023-05-23T03:37:47;17.20;99.90
37938;DHT22;23763;48.130;11.602;2023-05-23T03:40:12;17.20;99.90
37938;DHT22;23763;48.130;11.602;2023-05-23T03:42:38;17.30;99.90
37938;DHT22;23763;48.130;11.602;2023-05-23T03:45:04;17.30;99.90
37938;DHT22;23763;48.130;11.602;2023-05-23T03:47:30;17.40;99.90
37938;DHT22;23763;48.130;11.602;2023-05-23T03:50:02;17.40;99.90
37938;DHT22;23763;48.130;11.602;2023-05-23T03:52:28;17.30;99.90
37938;DHT22;23763;48.130;11.602;2023-05-23T03:54:54;17.40;99.90
37938;DHT22;23763;48.130;11.602;2023-05-23T03:57:19;17.40;99.90
37938;DHT22;23763;48.130;11.602;2023-05-23T03:59:45;17.40;99.90
37938;DHT22;23763;48.130;11.602;2023-05-23T04:02:11;17.40;99.90
37938;DHT22;23763;48.130;11.602;2023-05-23T04:04:36;17.40;99.90
37938;DHT22;23763;48.130;11.602;2023-05-23T04:07:04;17.50;99.90
37938;DHT22;23763;48.130;11.602;2023-05-23T04:09:30;17.50;99.90
37938;DHT22;23763;48.130;11.602;2023-05-23T04:11:56;17.60;99.90
37938;DHT22;23763;48.130;11.602;2023-05-23T04:14:22;17.60;99.90
37938;DHT22;23763;48.130;11.602;2023-05-23T04:16:52;17.60;99.90
37938;DHT22;23763;48.130;11.602;2023-05-23T04:19:18;17.80;99.90
37938;DHT22;23763;48.130;11.602;2023-05-23T04:21:43;17.90;99.90
37938;DHT22;23763;48.130;11.602;2023-05-23T04:24:09;17.90;99.90
37938;DHT22;23763;48.130;11.602;2023-05-23T04:26:35;18.00;99.90
37938;DHT22;23763;48.130;11.602;2023-05-23T04:29:02;18.10;99.90
37938;DHT22;23763;48.130;11.602;2023-05-23T04:31:28;18.10;99.90
37938;DHT22;23763;48.130;11.602;2023-05-23T04:33:53;18.20;99.90
37938;DHT22;23763;48.130;11.602;2023-05-23T04:36:19;18.20;99.90
37938;DHT22;23763;48.130;11.602;2023-05-23T04:38:44;18.10;99.90
37938;DHT22;23763;48.130;11.602;2023-05-23T04:41:10;18.20;99.90
37938;DHT22;23763;48.130;11.602;2023-05-23T04:43:36;18.20;99.90
37938;DHT22;23763;48.130;11.602;2023-05-23T04:46:07;18.10;99.90
37938;DHT22;23763;48.130;11.602;2023-05-23T04:48:33;18.20;99.90
37938;DHT22;23763;48.130;11.602;2023-05-23T04:51:00;18.20;99.90
37938;DHT22;23763;48.130;11.602;2023-05-23T04:53:30;18.20;99.90
37938;DHT22;23763;48.130;11.602;2023-05-23T04:55:55;18.30;99.90
37938;DHT22;23763;48.130;11.602;2023-05-23T04:58:21;18.40;99.90
37938;DHT22;23763;48.130;11.602;2023-05-23T05:00:47;18.50;99.90
37938;DHT22;23763;48.130;11.602;2023-05-23T05:03:12;18.60;99.90
37938;DHT22;23763;48.130;11.602;2023-05-23T05:05:38;18.60;99.90
37938;DHT22;23763;48.130;11.602;2023-05-23T05:08:03;18.50;99.90
37938;DHT22;23763;48.130;11.602;2023-05-23T05:10:29;18.50;99.90
37938;DHT22;23763;48.130;11.602;2023-05-23T05:12:55;18.60;99.90
37938;DHT22;23763;48.130;11.602;2023-05-23T05:15:20;18.70;99.90
37938;DHT22;23763;48.130;11.602;2023-05-23T05:17:46;18.90;99.90
37938;DHT22;23763;48.130;11.602;2023-05-23T05:20:11;19.00;99.90
37938;DHT22;23763;48.130;11.602;2023-05-23T05:22:40;19.20;99.90
37938;DHT22;23763;48.130;11.602;2023-05-23T05:25:06;19.30;99.90
37938;DHT22;23763;48.130;11.602;2023-05-23T05:27:33;19.60;99.90
37938;DHT22;23763;48.130;11.602;2023-05-23T05:29:58;19.70;99.90
37938;DHT22;23763;48.130;11.602;2023-05-23T05:32:29;19.70;99.90
37938;DHT22;23763;48.130;11.602;2023-05-23T05:35:01;19.70;99.90
37938;DHT22;23763;48.130;11.602;2023-05-23T05:37:28;19.70;99.90
37938;DHT22;23763;48.130;11.602;2023-05-23T05:39:54;19.80;99.90
37938;DHT22;23763;48.130;11.602;2023-05-23T05:42:23;19.90;99.90
37938;DHT22;23763;48.130;11.602;2023-05-23T05:44:49;20.00;99.90
37938;DHT22;23763;48.130;11.602;2023-05-23T05:47:15;20.10;99.90
37938;DHT22;23763;48.130;11.602;2023-05-23T05:49:40;20.10;99.90
37938;DHT22;23763;48.130;11.602;2023-05-23T05:52:07;19.90;99.90
37938;DHT22;23763;48.130;11.602;2023-05-23T05:54:33;20.20;99.90
37938;DHT22;23763;48.130;11.602;2023-05-23T05:56:58;20.30;99.90
37938;DHT22;23763;48.130;11.602;2023-05-23T05:59:24;20.70;99.90
37938;DHT22;23763;48.130;11.602;2023-05-23T06:01:51;21.00;99.90
37938;DHT22;23763;48.130;11.602;2023-05-23T06:04:16;21.20;99.90
37938;DHT22;23763;48.130;11.602;2023-05-23T06:06:42;21.40;99.90
37938;DHT22;23763;48.130;11.602;2023-05-23T06:09:08;21.30;99.90
37938;DHT22;23763;48.130;11.602;2023-05-23T06:11:35;21.40;99.90
37938;DHT22;23763;48.130;11.602;2023-05-23T06:14:03;21.40;99.90
37938;DHT22;23763;48.130;11.602;2023-05-23T06:16:29;21.20;99.90
37938;DHT22;23763;48.130;11.602;2023-05-23T06:18:54;21.20;99.90
37938;DHT22;23763;48.130;11.602;2023-05-23T06:21:20;21.20;99.90
37938;DHT22;23763;48.130;11.602;2023-05-23T06:23:45;21.30;99.90
37938;DHT22;23763;48.130;11.602;2023-05-23T06:26:11;21.60;99.90
37938;DHT22;23763;48.130;11.602;2023-05-23T06:28:37;21.90;99.90
37938;DHT22;23763;48.130;11.602;2023-05-23T06:31:04;23.00;99.90
37938;DHT22;23763;48.130;11.602;2023-05-23T06:33:30;25.10;99.90
37938;DHT22;23763;48.130;11.602;2023-05-23T06:35:55;27.50;99.00
37938;DHT22;23763;48.130;11.602;2023-05-23T06:38:21;27.50;96.50
37938;DHT22;23763;48.130;11.602;2023-05-23T06:40:47;26.10;97.60
37938;DHT22;23763;48.130;11.602;2023-05-23T06:43:12;27.50;96.70
37938;DHT22;23763;48.130;11.602;2023-05-23T06:45:38;28.50;94.80
37938;DHT22;23763;48.130;11.602;2023-05-23T06:48:04;29.00;93.50
37938;DHT22;23763;48.130;11.602;2023-05-23T06:50:29;28.10;94.00
37938;DHT22;23763;48.130;11.602;2023-05-23T06:52:55;27.90;94.40
37938;DHT22;23763;48.130;11.602;2023-05-23T06:55:22;29.20;93.20
37938;DHT22;23763;48.130;11.602;2023-05-23T06:57:47;30.30;91.70
37938;DHT22;23763;48.130;11.602;2023-05-23T07:00:16;31.40;90.20
37938;DHT22;23763;48.130;11.602;2023-05-23T07:02:42;31.60;88.40
37938;DHT22;23763;48.130;11.602;2023-05-23T07:05:09;31.50;87.30
37938;DHT22;23763;48.130;11.602;2023-05-23T07:07:35;31.90;86.60
37938;DHT22;23763;48.130;11.602;2023-05-23T07:10:01;30.00;88.80
37938;DHT22;23763;48.130;11.602;2023-05-23T07:12:26;29.60;90.30
37938;DHT22;23763;48.130;11.602;2023-05-23T07:14:52;29.40;90.40
37938;DHT22;23763;48.130;11.602;2023-05-23T07:17:17;28.70;91.10
37938;DHT22;23763;48.130;11.602;2023-05-23T07:19:44;28.90;90.90
37938;DHT22;23763;48.130;11.602;2023-05-23T07:22:10;28.60;91.40
37938;DHT22;23763;48.130;11.602;2023-05-23T07:24:35;28.60;91.40
37938;DHT22;23763;48.130;11.602;2023-05-23T07:27:01;28.40;91.70
37938;DHT22;23763;48.130;11.602;2023-05-23T07:29:27;27.80;92.20
37938;DHT22;23763;48.130;11.602;2023-05-23T07:31:52;26.80;93.20
37938;DHT22;23763;48.130;11.602;2023-05-23T07:34:18;25.60;94.80
37938;DHT22;23763;48.130;11.602;2023-05-23T07:36:44;24.90;96.00
37938;DHT22;23763;48.130;11.602;2023-05-23T07:39:09;24.00;97.40
37938;DHT22;23763;48.130;11.602;2023-05-23T07:41:35;23.70;98.20
37938;DHT22;23763;48.130;11.602;2023-05-23T07:44:01;23.30;99.00
37938;DHT22;23763;48.130;11.602;2023-05-23T07:46:26;23.20;99.70
37938;DHT22;23763;48.130;11.602;2023-05-23T07:48:52;24.30;98.90
37938;DHT22;23763;48.130;11.602;2023-05-23T07:51:17;24.80;97.60
37938;DHT22;23763;48.130;11.602;2023-05-23T07:53:45;24.50;97.80
37938;DHT22;23763;48.130;11.602;2023-05-23T07:56:11;23.90;98.50
37938;DHT22;23763;48.130;11.602;2023-05-23T07:58:37;23.60;99.10
37938;DHT22;23763;48.130;11.602;2023-05-23T08:01:02;23.40;99.30
37938;DHT22;23763;48.130;11.602;2023-05-23T08:03:28;23.20;99.90
37938;DHT22;23763;48.130;11.602;2023-05-23T08:05:54;22.80;99.90
37938;DHT22;23763;48.130;11.602;2023-05-23T08:08:20;22.80;99.90
37938;DHT22;23763;48.130;11.602;2023-05-23T08:10:45;22.40;99.90
37938;DHT22;23763;48.130;11.602;2023-05-23T08:13:11;22.10;99.90
37938;DHT22;23763;48.130;11.602;2023-05-23T08:15:37;21.90;99.90
37938;DHT22;23763;48.130;11.602;2023-05-23T08:18:03;21.70;99.90
37938;DHT22;23763;48.130;11.602;2023-05-23T08:20:29;21.60;99.90
37938;DHT22;23763;48.130;11.602;2023-05-23T08:23:01;21.50;99.90
37938;DHT22;23763;48.130;11.602;2023-05-23T08:25:27;21.40;99.90
37938;DHT22;23763;48.130;11.602;2023-05-23T08:27:55;21.50;99.90
37938;DHT22;23763;48.130;11.602;2023-05-23T08:30:22;21.80;99.90
37938;DHT22;23763;48.130;11.602;2023-05-23T08:32:52;22.10;99.90
37938;DHT22;23763;48.130;11.602;2023-05-23T08:35:19;22.00;99.90
37938;DHT22;23763;48.130;11.602;2023-05-23T08:37:45;21.80;99.90
37938;DHT22;23763;48.130;11.602;2023-05-23T08:40:18;21.80;99.90
37938;DHT22;23763;48.130;11.602;2023-05-23T08:42:46;22.00;99.90
37938;DHT22;23763;48.130;11.602;2023-05-23T08:45:13;22.60;99.90
37938;DHT22;23763;48.130;11.602;2023-05-23T08:47:41;22.70;99.90
37938;DHT22;23763;48.130;11.602;2023-05-23T08:50:07;22.60;99.90
37938;DHT22;23763;48.130;11.602;2023-05-23T08:52:57;22.50;99.90
37938;DHT22;23763;48.130;11.602;2023-05-23T08:55:24;22.20;99.90
37938;DHT22;23763;48.130;11.602;2023-05-23T08:57:54;22.00;99.90
37938;DHT22;23763;48.130;11.602;2023-05-23T09:00:21;21.80;99.90
37938;DHT22;23763;48.130;11.602;2023-05-23T09:02:47;21.80;99.90
37938;DHT22;23763;48.130;11.602;2023-05-23T09:05:14;21.80;99.90
37938;DHT22;23763;48.130;11.602;2023-05-23T09:07:40;21.70;99.90
37938;DHT22;23763;48.130;11.602;2023-05-23T09:10:08;21.60;99.90
37938;DHT22;23763;48.130;11.602;2023-05-23T09:12:35;21.60;99.90
37938;DHT22;23763;48.130;11.602;2023-05-23T09:15:03;21.60;99.90
37938;DHT22;23763;48.130;11.602;2023-05-23T09:17:30;21.90;99.90
37938;DHT22;23763;48.130;11.602;2023-05-23T09:19:57;22.10;99.90
37938;DHT22;23763;48.130;11.602;2023-05-23T09:22:24;22.10;99.90
37938;DHT22;23763;48.130;11.602;2023-05-23T09:24:54;22.20;99.90
37938;DHT22;23763;48.130;11.602;2023-05-23T09:27:20;22.10;99.90
37938;DHT22;23763;48.130;11.602;2023-05-23T09:29:46;22.30;99.90
37938;DHT22;23763;48.130;11.602;2023-05-23T09:32:19;22.10;99.90
37938;DHT22;23763;48.130;11.602;2023-05-23T09:34:59;21.80;99.90
37938;DHT22;23763;48.130;11.602;2023-05-23T09:37:30;21.80;99.90
37938;DHT22;23763;48.130;11.602;2023-05-23T09:40:01;22.00;99.90
37938;DHT22;23763;48.130;11.602;2023-05-23T09:42:31;22.20;99.90
37938;DHT22;23763;48.130;11.602;2023-05-23T09:44:58;21.90;99.90
37938;DHT22;23763;48.130;11.602;2023-05-23T09:47:24;21.70;99.90
37938;DHT22;23763;48.130;11.602;2023-05-23T09:49:54;21.60;99.90
37938;DHT22;23763;48.130;11.602;2023-05-23T09:52:19;21.40;99.90
37938;DHT22;23763;48.130;11.602;2023-05-23T09:54:46;21.30;99.90
37938;DHT22;23763;48.130;11.602;2023-05-23T09:57:13;21.30;99.90
37938;DHT22;23763;48.130;11.602;2023-05-23T09:59:41;21.30;99.90
37938;DHT22;23763;48.130;11.602;2023-05-23T10:02:11;21.20;99.90
37938;DHT22;23763;48.130;11.602;2023-05-23T10:04:38;21.20;99.90
37938;DHT22;23763;48.130;11.602;2023-05-23T10:07:19;21.00;99.90
37938;DHT22;23763;48.130;11.602;2023-05-23T10:09:50;21.00;99.90
37938;DHT22;23763;48.130;11.602;2023-05-23T10:15:03;21.20;99.90
37938;DHT22;23763;48.130;11.602;2023-05-23T10:20:04;21.30;99.90
37938;DHT22;23763;48.130;11.602;2023-05-23T10:22:37;21.50;99.90
37938;DHT22;23763;48.130;11.602;2023-05-23T10:25:04;21.60;99.90
37938;DHT22;23763;48.130;11.602;2023-05-23T10:27:31;21.70;99.90
37938;DHT22;23763;48.130;11.602;2023-05-23T10:29:58;21.90;99.90
37938;DHT22;23763;48.130;11.602;2023-05-23T10:32:25;22.10;99.90
37938;DHT22;23763;48.130;11.602;2023-05-23T10:34:58;22.20;99.90
37938;DHT22;23763;48.130;11.602;2023-05-23T10:37:43;22.30;99.90
37938;DHT22;23763;48.130;11.602;2023-05-23T10:46:08;22.40;99.90
37938;DHT22;23763;48.130;11.602;2023-05-23T10:48:40;22.10;99.90
37938;DHT22;23763;48.130;11.602;2023-05-23T10:51:08;21.70;99.90
37938;DHT22;23763;48.130;11.602;2023-05-23T10:53:43;21.40;99.90
37938;DHT22;23763;48.130;11.602;2023-05-23T10:56:10;21.60;99.90
37938;DHT22;23763;48.130;11.602;2023-05-23T10:58:43;22.00;99.90
37938;DHT22;23763;48.130;11.602;2023-05-23T11:01:12;22.20;99.90
37938;DHT22;23763;48.130;11.602;2023-05-23T11:14:33;22.60;99.90
37938;DHT22;23763;48.130;11.602;2023-05-23T11:17:01;22.90;99.90
37938;DHT22;23763;48.130;11.602;2023-05-23T11:19:39;23.00;99.90
37938;DHT22;23763;48.130;11.602;2023-05-23T11:22:19;23.00;99.90
37938;DHT22;23763;48.130;11.602;2023-05-23T11:27:15;23.10;99.60
37938;DHT22;23763;48.130;11.602;2023-05-23T11:29:42;23.00;99.60
37938;DHT22;23763;48.130;11.602;2023-05-23T11:32:11;23.00;99.60
37938;DHT22;23763;48.130;11.602;2023-05-23T11:34:38;22.90;99.80
37938;DHT22;23763;48.130;11.602;2023-05-23T11:37:03;23.20;99.50
37938;DHT22;23763;48.130;11.602;2023-05-23T11:39:29;23.10;99.30
37938;DHT22;23763;48.130;11.602;2023-05-23T11:41:59;23.10;99.80
37938;DHT22;23763;48.130;11.602;2023-05-23T11:44:25;23.20;99.20
37938;DHT22;23763;48.130;11.602;2023-05-23T11:47:04;23.40;99.50
37938;DHT22;23763;48.130;11.602;2023-05-23T11:49:33;23.70;99.00
37938;DHT22;23763;48.130;11.602;2023-05-23T11:52:01;23.80;98.30
37938;DHT22;23763;48.130;11.602;2023-05-23T11:54:27;23.80;98.40
37938;DHT22;23763;48.130;11.602;2023-05-23T11:56:54;23.90;98.20
37938;DHT22;23763;48.130;11.602;2023-05-23T11:59:21;23.80;98.20
37938;DHT22;23763;48.130;11.602;2023-05-23T12:01:47;24.10;98.40
37938;DHT22;23763;48.130;11.602;2023-05-23T12:04:13;24.40;97.90
37938;DHT22;23763;48.130;11.602;2023-05-23T12:06:40;24.50;97.10
37938;DHT22;23763;48.130;11.602;2023-05-23T12:09:06;24.30;97.90
37938;DHT22;23763;48.130;11.602;2023-05-23T12:11:33;24.30;97.90
37938;DHT22;23763;48.130;11.602;2023-05-23T12:13:59;24.00;98.20
37938;DHT22;23763;48.130;11.602;2023-05-23T12:16:30;23.70;98.50
37938;DHT22;23763;48.130;11.602;2023-05-23T12:18:56;23.60;98.20
37938;DHT22;23763;48.130;11.602;2023-05-23T12:21:25;23.60;98.20
37938;DHT22;23763;48.130;11.602;2023-05-23T12:23:51;23.80;98.00
37938;DHT22;23763;48.130;11.602;2023-05-23T12:26:16;23.90;97.60
37938;DHT22;23763;48.130;11.602;2023-05-23T12:28:43;24.10;97.10
37938;DHT22;23763;48.130;11.602;2023-05-23T12:31:16;24.10;97.40
37938;DHT22;23763;48.130;11.602;2023-05-23T12:33:42;23.80;97.80
37938;DHT22;23763;48.130;11.602;2023-05-23T12:36:09;23.60;97.90
37938;DHT22;23763;48.130;11.602;2023-05-23T12:38:36;23.60;98.00
37938;DHT22;23763;48.130;11.602;2023-05-23T12:41:18;23.80;98.00
37938;DHT22;23763;48.130;11.602;2023-05-23T12:43:52;23.70;98.00
37938;DHT22;23763;48.130;11.602;2023-05-23T12:46:19;23.50;98.90
37938;DHT22;23763;48.130;11.602;2023-05-23T12:48:46;23.40;99.50
37938;DHT22;23763;48.130;11.602;2023-05-23T12:51:15;23.50;99.50
37938;DHT22;23763;48.130;11.602;2023-05-23T12:53:41;23.60;99.20
37938;DHT22;23763;48.130;11.602;2023-05-23T12:56:07;23.50;98.60
37938;DHT22;23763;48.130;11.602;2023-05-23T12:58:32;23.40;98.40
37938;DHT22;23763;48.130;11.602;2023-05-23T13:01:00;23.40;98.30
37938;DHT22;23763;48.130;11.602;2023-05-23T13:03:27;23.40;98.50
37938;DHT22;23763;48.130;11.602;2023-05-23T13:05:55;23.50;98.70
37938;DHT22;23763;48.130;11.602;2023-05-23T13:08:22;23.80;98.10
37938;DHT22;23763;48.130;11.602;2023-05-23T13:10:51;23.90;98.30
37938;DHT22;23763;48.130;11.602;2023-05-23T13:13:17;23.80;98.60
37938;DHT22;23763;48.130;11.602;2023-05-23T13:15:44;23.80;98.30
37938;DHT22;23763;48.130;11.602;2023-05-23T13:18:09;23.70;98.10
37938;DHT22;23763;48.130;11.602;2023-05-23T13:20:35;23.70;98.20
37938;DHT22;23763;48.130;11.602;2023-05-23T13:23:02;23.60;98.10
37938;DHT22;23763;48.130;11.602;2023-05-23T13:25:28;23.50;97.90
37938;DHT22;23763;48.130;11.602;2023-05-23T13:27:54;23.50;98.20
37938;DHT22;23763;48.130;11.602;2023-05-23T13:30:23;23.20;98.50
37938;DHT22;23763;48.130;11.602;2023-05-23T13:32:49;23.20;99.00
37938;DHT22;23763;48.130;11.602;2023-05-23T13:35:15;23.30;98.60
37938;DHT22;23763;48.130;11.602;2023-05-23T13:37:41;23.50;98.40
37938;DHT22;23763;48.130;11.602;2023-05-23T13:40:10;23.70;98.00
37938;DHT22;23763;48.130;11.602;2023-05-23T13:42:38;23.60;97.90
37938;DHT22;23763;48.130;11.602;2023-05-23T13:45:04;23.60;98.00
37938;DHT22;23763;48.130;11.602;2023-05-23T13:47:30;23.40;97.90
37938;DHT22;23763;48.130;11.602;2023-05-23T13:49:56;23.40;98.30
37938;DHT22;23763;48.130;11.602;2023-05-23T13:52:23;23.40;97.80
37938;DHT22;23763;48.130;11.602;2023-05-23T13:54:49;23.50;97.70
37938;DHT22;23763;48.130;11.602;2023-05-23T13:57:15;23.70;96.90
37938;DHT22;23763;48.130;11.602;2023-05-23T13:59:40;23.70;96.80
37938;DHT22;23763;48.130;11.602;2023-05-23T14:02:06;23.60;97.00
37938;DHT22;23763;48.130;11.602;2023-05-23T14:04:32;23.50;97.20
37938;DHT22;23763;48.130;11.602;2023-05-23T14:06:57;23.40;97.00
37938;DHT22;23763;48.130;11.602;2023-05-23T14:09:23;23.30;97.00
37938;DHT22;23763;48.130;11.602;2023-05-23T14:11:49;23.30;96.80
37938;DHT22;23763;48.130;11.602;2023-05-23T14:14:16;23.40;96.60
37938;DHT22;23763;48.130;11.602;2023-05-23T14:16:43;23.50;96.70
37938;DHT22;23763;48.130;11.602;2023-05-23T14:19:09;23.60;96.70
37938;DHT22;23763;48.130;11.602;2023-05-23T14:21:34;23.60;96.80
37938;DHT22;23763;48.130;11.602;2023-05-23T14:24:01;23.70;96.40
37938;DHT22;23763;48.130;11.602;2023-05-23T14:26:26;23.60;96.60
37938;DHT22;23763;48.130;11.602;2023-05-23T14:28:52;23.40;96.60
37938;DHT22;23763;48.130;11.602;2023-05-23T14:31:18;23.20;98.40
37938;DHT22;23763;48.130;11.602;2023-05-23T14:33:44;22.80;99.50
37938;DHT22;23763;48.130;11.602;2023-05-23T14:36:10;22.60;99.90
37938;DHT22;23763;48.130;11.602;2023-05-23T14:38:36;22.50;99.90
37938;DHT22;23763;48.130;11.602;2023-05-23T14:41:05;22.30;99.90
37938;DHT22;23763;48.130;11.602;2023-05-23T14:43:30;22.20;99.90
37938;DHT22;23763;48.130;11.602;2023-05-23T14:45:56;22.20;99.90
37938;DHT22;23763;48.130;11.602;2023-05-23T14:48:22;22.10;99.90
37938;DHT22;23763;48.130;11.602;2023-05-23T14:50:47;22.10;99.90
37938;DHT22;23763;48.130;11.602;2023-05-23T14:53:13;21.90;99.90
37938;DHT22;23763;48.130;11.602;2023-05-23T14:55:38;21.70;99.90
37938;DHT22;23763;48.130;11.602;2023-05-23T14:58:04;21.60;99.90
37938;DHT22;23763;48.130;11.602;2023-05-23T15:00:30;21.60;99.90
37938;DHT22;23763;48.130;11.602;2023-05-23T15:02:57;21.50;99.90
37938;DHT22;23763;48.130;11.602;2023-05-23T15:05:23;21.50;99.90
37938;DHT22;23763;48.130;11.602;2023-05-23T15:07:49;21.40;99.90
37938;DHT22;23763;48.130;11.602;2023-05-23T15:10:15;21.50;99.90
37938;DHT22;23763;48.130;11.602;2023-05-23T15:12:41;21.50;99.90
37938;DHT22;23763;48.130;11.602;2023-05-23T15:15:07;21.60;99.60
37938;DHT22;23763;48.130;11.602;2023-05-23T15:17:33;21.60;99.50
37938;DHT22;23763;48.130;11.602;2023-05-23T15:19:58;21.80;99.20
37938;DHT22;23763;48.130;11.602;2023-05-23T15:22:24;21.90;98.70
37938;DHT22;23763;48.130;11.602;2023-05-23T15:24:50;21.90;98.60
37938;DHT22;23763;48.130;11.602;2023-05-23T15:27:17;21.90;98.80
37938;DHT22;23763;48.130;11.602;2023-05-23T15:29:44;21.90;99.00
37938;DHT22;23763;48.130;11.602;2023-05-23T15:32:10;21.80;98.80
37938;DHT22;23763;48.130;11.602;2023-05-23T15:34:35;21.60;99.00
37938;DHT22;23763;48.130;11.602;2023-05-23T15:37:01;21.70;99.20
37938;DHT22;23763;48.130;11.602;2023-05-23T15:39:27;21.70;98.90
37938;DHT22;23763;48.130;11.602;2023-05-23T15:41:53;21.80;99.00
37938;DHT22;23763;48.130;11.602;2023-05-23T15:44:18;21.80;99.40
37938;DHT22;23763;48.130;11.602;2023-05-23T15:46:50;21.80;98.60